createdAt,value
2019-02-09T00:01:07.136Z,67.09
2019-02-09T00:03:36.683Z,66.92
2019-02-09T00:06:09.801Z,67.03
2019-02-09T00:08:40.882Z,67.02
2019-02-09T00:11:11.700Z,66.97
2019-02-09T00:13:41.822Z,66.78
2019-02-09T00:16:11.384Z,66.87
2019-02-09T00:18:42.487Z,66.72
2019-02-09T00:21:15.162Z,66.50
2019-02-09T00:23:44.701Z,65.90
2019-02-09T00:26:14.183Z,66.21
2019-02-09T00:28:44.034Z,66.03
2019-02-09T00:31:16.493Z,66.27
2019-02-09T00:33:45.924Z,66.20
2019-02-09T00:36:17.192Z,66.11
2019-02-09T00:38:46.602Z,66.39
2019-02-09T00:41:16.095Z,66.38
2019-02-09T00:43:47.611Z,66.38
2019-02-09T00:46:16.990Z,66.17
2019-02-09T00:48:46.398Z,65.88
2019-02-09T00:51:15.956Z,65.54
2019-02-09T00:53:45.362Z,66.03
2019-02-09T00:56:16.318Z,65.20
2019-02-09T00:58:45.721Z,65.82
2019-02-09T01:01:15.779Z,65.51
2019-02-09T01:03:45.597Z,65.60
2019-02-09T01:06:15.158Z,65.76
2019-02-09T01:08:49.694Z,65.62
2019-02-09T01:11:23.113Z,65.72
2019-02-09T01:13:52.577Z,65.82
2019-02-09T01:16:34.503Z,65.71
2019-02-09T01:19:04.625Z,65.97
2019-02-09T01:21:37.102Z,65.88
2019-02-09T01:24:09.925Z,65.79
2019-02-09T01:26:42.613Z,65.93
2019-02-09T01:29:12.027Z,65.72
2019-02-09T01:31:42.089Z,65.43
2019-02-09T01:34:15.527Z,65.52
2019-02-09T01:36:44.947Z,65.76
2019-02-09T01:39:19.907Z,65.59
2019-02-09T01:41:49.398Z,65.49
2019-02-09T01:44:23.250Z,65.63
2019-02-09T01:46:54.216Z,65.45
2019-02-09T01:49:26.697Z,65.65
2019-02-09T01:51:58.201Z,65.59
2019-02-09T01:54:29.118Z,65.74
2019-02-09T01:57:00.243Z,65.69
2019-02-09T01:59:30.797Z,65.66
2019-02-09T02:02:01.940Z,65.64
2019-02-09T02:04:34.170Z,65.55
2019-02-09T02:07:11.137Z,65.72
2019-02-09T02:09:44.584Z,65.43
2019-02-09T02:12:16.192Z,65.44
2019-02-09T02:14:50.364Z,65.38
2019-02-09T02:17:21.495Z,65.62
2019-02-09T02:19:51.162Z,65.54
2019-02-09T02:22:23.438Z,65.65
2019-02-09T02:24:54.824Z,65.60
2019-02-09T02:27:24.262Z,65.84
2019-02-09T02:29:54.154Z,65.89
2019-02-09T02:32:24.410Z,66.21
2019-02-09T02:34:54.035Z,66.04
2019-02-09T02:37:23.465Z,66.00
2019-02-09T02:39:53.207Z,66.19
2019-02-09T02:42:22.619Z,65.99
2019-02-09T02:44:52.165Z,66.42
2019-02-09T02:47:21.594Z,66.69
2019-02-09T02:49:54.484Z,66.62
2019-02-09T02:52:25.420Z,66.95
2019-02-09T02:54:54.818Z,66.97
2019-02-09T02:57:26.326Z,66.98
2019-02-09T02:59:58.514Z,67.21
2019-02-09T03:02:27.942Z,67.31
2019-02-09T03:04:58.306Z,67.11
2019-02-09T03:07:27.713Z,67.13
2019-02-09T03:10:00.549Z,67.30
2019-02-09T03:12:31.148Z,66.91
2019-02-09T03:15:00.970Z,67.14
2019-02-09T03:17:30.754Z,67.37
2019-02-09T03:20:00.271Z,67.60
2019-02-09T03:22:32.672Z,68.82
2019-02-09T03:25:02.080Z,69.34
2019-02-09T03:27:32.047Z,70.18
2019-02-09T03:30:03.435Z,70.79
2019-02-09T03:32:37.714Z,71.34
2019-02-09T03:35:12.163Z,71.81
2019-02-09T03:37:48.576Z,71.17
2019-02-09T03:40:23.320Z,71.80
2019-02-09T03:42:52.876Z,71.88
2019-02-09T03:45:24.984Z,72.12
2019-02-09T03:47:54.563Z,71.87
2019-02-09T03:50:35.916Z,71.57
2019-02-09T03:53:07.537Z,71.34
2019-02-09T03:55:38.959Z,71.44
2019-02-09T03:58:08.951Z,71.67
2019-02-09T04:00:38.351Z,71.12
2019-02-09T04:03:13.226Z,71.38
2019-02-09T04:05:50.069Z,71.61
2019-02-09T04:08:22.390Z,71.39
2019-02-09T04:10:57.878Z,71.79
2019-02-09T04:13:28.210Z,71.68
2019-02-09T04:16:00.606Z,71.37
2019-02-09T04:18:30.105Z,71.62
2019-02-09T04:21:00.210Z,71.86
2019-02-09T04:23:29.629Z,71.76
2019-02-09T04:26:02.216Z,71.49
2019-02-09T04:28:37.413Z,71.71
2019-02-09T04:31:07.061Z,71.43
2019-02-09T04:33:38.187Z,71.72
2019-02-09T04:36:07.733Z,72.14
2019-02-09T04:38:37.727Z,72.03
2019-02-09T04:41:09.285Z,71.94
2019-02-09T04:43:42.975Z,72.21
2019-02-09T04:46:14.015Z,72.55
2019-02-09T04:48:43.581Z,72.51
2019-02-09T04:51:12.989Z,72.60
2019-02-09T04:53:42.394Z,72.78
2019-02-09T04:56:11.816Z,72.69
2019-02-09T04:58:45.829Z,72.78
2019-02-09T05:01:17.633Z,72.90
2019-02-09T05:03:49.002Z,73.35
2019-02-09T05:06:22.744Z,73.71
2019-02-09T05:08:52.142Z,73.71
2019-02-09T05:11:24.550Z,74.00
2019-02-09T05:13:53.951Z,74.17
2019-02-09T05:16:23.362Z,74.31
2019-02-09T05:18:53.396Z,74.49
2019-02-09T05:21:22.791Z,74.47
2019-02-09T05:23:54.509Z,74.33
2019-02-09T05:26:25.593Z,74.34
2019-02-09T05:28:57.458Z,74.64
2019-02-09T05:31:28.581Z,74.59
2019-02-09T05:34:01.530Z,74.69
2019-02-09T05:36:31.681Z,74.62
2019-02-09T05:39:01.586Z,74.51
2019-02-09T05:41:32.594Z,74.48
2019-02-09T05:44:03.819Z,74.70
2019-02-09T05:46:34.732Z,74.80
2019-02-09T05:49:06.410Z,74.71
2019-02-09T05:51:35.886Z,74.78
2019-02-09T05:54:05.449Z,75.00
2019-02-09T05:56:34.863Z,74.78
2019-02-09T05:59:07.436Z,74.74
2019-02-09T06:01:36.947Z,74.46
2019-02-09T06:04:09.899Z,74.21
2019-02-09T06:06:39.615Z,74.02
2019-02-09T06:09:14.964Z,73.83
2019-02-09T06:11:44.371Z,73.71
2019-02-09T06:14:13.805Z,73.75
2019-02-09T06:16:43.211Z,73.53
2019-02-09T06:19:15.028Z,73.56
2019-02-09T06:21:44.436Z,73.76
2019-02-09T06:24:16.107Z,73.84
2019-02-09T06:26:45.640Z,73.99
2019-02-09T06:29:15.193Z,74.00
2019-02-09T06:31:45.536Z,74.43
2019-02-09T06:34:21.669Z,74.92
2019-02-09T06:36:52.619Z,74.58
2019-02-09T06:39:22.053Z,74.62
2019-02-09T06:41:51.587Z,74.52
2019-02-09T06:44:21.013Z,74.63
2019-02-09T06:46:50.529Z,74.83
2019-02-09T06:49:23.400Z,74.69
2019-02-09T06:51:57.972Z,74.95
2019-02-09T06:54:29.231Z,74.88
2019-02-09T06:57:04.063Z,74.82
2019-02-09T06:59:33.555Z,74.54
2019-02-09T07:02:03.035Z,74.38
2019-02-09T07:04:34.493Z,74.22
2019-02-09T07:07:07.745Z,74.07
2019-02-09T07:09:37.173Z,73.88
2019-02-09T07:12:09.235Z,73.39
2019-02-09T07:14:41.623Z,73.44
2019-02-09T07:17:18.792Z,73.39
2019-02-09T07:19:50.062Z,73.24
2019-02-09T07:22:24.925Z,73.19
2019-02-09T07:24:59.716Z,72.67
2019-02-09T07:27:29.787Z,72.83
2019-02-09T07:30:02.477Z,72.63
2019-02-09T07:32:32.585Z,72.12
2019-02-09T07:35:04.580Z,72.35
2019-02-09T07:37:44.954Z,72.95
2019-02-09T07:40:17.434Z,72.86
2019-02-09T07:42:46.911Z,72.96
2019-02-09T07:45:27.652Z,72.39
2019-02-09T07:47:57.265Z,72.23
2019-02-09T07:50:31.200Z,72.23
2019-02-09T07:53:02.573Z,70.95
2019-02-09T07:55:36.323Z,70.85
2019-02-09T07:58:06.036Z,69.96
2019-02-09T08:00:38.156Z,68.82
2019-02-09T08:03:07.556Z,68.71
2019-02-09T08:05:37.318Z,69.02
2019-02-09T08:08:09.932Z,68.89
2019-02-09T08:10:39.893Z,68.84
2019-02-09T08:13:10.350Z,68.65
2019-02-09T08:15:46.197Z,68.20
2019-02-09T08:18:15.747Z,68.07
2019-02-09T08:20:48.016Z,68.31
2019-02-09T08:23:17.416Z,68.09
2019-02-09T08:25:48.455Z,67.63
2019-02-09T08:28:17.970Z,67.67
2019-02-09T08:30:56.966Z,67.79
2019-02-09T08:33:26.442Z,67.21
2019-02-09T08:35:58.250Z,67.36
2019-02-09T08:38:32.782Z,67.47
2019-02-09T08:41:04.098Z,66.98
2019-02-09T08:43:34.023Z,66.56
2019-02-09T08:46:05.756Z,66.70
2019-02-09T08:48:36.704Z,66.67
2019-02-09T08:51:08.733Z,66.02
2019-02-09T08:53:38.214Z,66.01
2019-02-09T08:56:07.793Z,66.25
2019-02-09T08:58:38.726Z,65.64
2019-02-09T09:01:08.797Z,65.52
2019-02-09T09:03:40.399Z,64.63
2019-02-09T09:06:09.977Z,63.81
2019-02-09T09:08:39.445Z,62.98
2019-02-09T09:11:12.567Z,62.15
2019-02-09T09:13:48.083Z,60.51
2019-02-09T09:16:19.769Z,60.02
2019-02-09T09:18:49.255Z,60.35
2019-02-09T09:21:20.451Z,60.11
2019-02-09T09:23:49.891Z,59.13
2019-02-09T09:26:19.379Z,58.35
2019-02-09T09:28:49.382Z,58.21
2019-02-09T09:31:18.856Z,58.70
2019-02-09T09:33:48.330Z,58.03
2019-02-09T09:36:19.501Z,58.74
2019-02-09T09:38:49.561Z,59.39
2019-02-09T09:41:19.070Z,59.93
2019-02-09T09:43:48.471Z,58.88
2019-02-09T09:46:19.967Z,58.80
2019-02-09T09:48:49.407Z,58.45
2019-02-09T09:51:18.824Z,58.45
2019-02-09T09:53:51.572Z,58.40
2019-02-09T09:56:21.137Z,58.74
2019-02-09T09:58:51.156Z,59.14
2019-02-09T10:01:21.011Z,58.64
2019-02-09T10:03:52.082Z,58.51
2019-02-09T10:06:22.969Z,56.98
2019-02-09T10:08:52.308Z,57.08
2019-02-09T10:11:25.514Z,56.90
2019-02-09T10:13:56.444Z,57.20
2019-02-09T10:16:25.940Z,57.56
2019-02-09T10:18:55.419Z,56.62
2019-02-09T10:21:25.948Z,55.96
2019-02-09T10:23:56.904Z,55.69
2019-02-09T10:26:26.818Z,55.78
2019-02-09T10:28:56.818Z,53.34
2019-02-09T10:31:29.055Z,52.93
2019-02-09T10:33:58.468Z,52.72
2019-02-09T10:36:27.950Z,53.47
2019-02-09T10:38:59.006Z,53.67
2019-02-09T10:41:29.405Z,53.01
2019-02-09T10:43:59.007Z,53.04
2019-02-09T10:46:28.418Z,53.52
2019-02-09T10:49:01.073Z,53.03
2019-02-09T10:51:30.625Z,53.08
2019-02-09T10:54:00.112Z,52.66
2019-02-09T10:56:29.818Z,53.09
2019-02-09T10:58:59.226Z,52.49
2019-02-09T11:01:28.726Z,52.45
2019-02-09T11:04:00.545Z,52.31
2019-02-09T11:06:30.079Z,52.58
2019-02-09T11:08:59.605Z,52.72
2019-02-09T11:11:29.481Z,53.05
2019-02-09T11:14:01.776Z,53.16
2019-02-09T11:16:31.623Z,53.28
2019-02-09T11:19:01.051Z,52.20
2019-02-09T11:21:30.571Z,52.41
2019-02-09T11:24:01.553Z,52.07
2019-02-09T11:26:33.813Z,52.48
2019-02-09T11:29:03.283Z,52.68
2019-02-09T11:31:32.694Z,52.74
2019-02-09T11:34:02.117Z,52.96
2019-02-09T11:36:32.194Z,52.65
2019-02-09T11:39:01.663Z,52.95
2019-02-09T11:41:32.693Z,52.53
2019-02-09T11:44:02.120Z,54.20
2019-02-09T11:46:31.546Z,55.55
2019-02-09T11:49:01.045Z,56.73
2019-02-09T11:51:30.518Z,59.61
2019-02-09T11:54:00.021Z,64.72
2019-02-09T11:56:30.938Z,67.65
2019-02-09T11:59:00.608Z,68.25
2019-02-09T12:01:30.081Z,68.09
2019-02-09T12:03:59.500Z,68.39
2019-02-09T12:06:32.111Z,68.45
2019-02-09T12:09:01.873Z,68.85
2019-02-09T12:11:32.837Z,67.84
2019-02-09T12:14:02.269Z,66.47
2019-02-09T12:16:31.687Z,66.74
2019-02-09T12:19:01.108Z,64.87
2019-02-09T12:21:30.594Z,63.68
2019-02-09T12:24:01.661Z,61.95
2019-02-09T12:26:34.392Z,59.70
2019-02-09T12:29:03.920Z,58.98
2019-02-09T12:31:33.451Z,57.79
2019-02-09T12:34:02.865Z,56.15
2019-02-09T12:36:32.304Z,55.96
2019-02-09T12:39:01.731Z,56.29
2019-02-09T12:41:32.781Z,56.02
2019-02-09T12:44:02.804Z,55.77
2019-02-09T12:46:35.310Z,54.53
2019-02-09T12:49:05.560Z,54.23
2019-02-09T12:51:35.008Z,53.63
2019-02-09T12:54:04.983Z,53.46
2019-02-09T12:56:34.754Z,51.40
2019-02-09T12:59:04.368Z,50.96
2019-02-09T13:01:36.498Z,51.40
2019-02-09T13:04:06.169Z,51.31
2019-02-09T13:06:36.624Z,50.25
2019-02-09T13:09:08.221Z,49.77
2019-02-09T13:11:38.094Z,50.50
2019-02-09T13:14:07.665Z,50.50
2019-02-09T13:16:37.146Z,49.50
2019-02-09T13:19:06.651Z,49.50
2019-02-09T13:21:36.150Z,49.76
2019-02-09T13:24:05.796Z,49.89
2019-02-09T13:26:35.236Z,50.34
2019-02-09T13:29:04.791Z,49.32
2019-02-09T13:31:34.300Z,50.73
2019-02-09T13:34:03.702Z,50.15
2019-02-09T13:36:36.385Z,50.62
2019-02-09T13:39:07.933Z,50.62
2019-02-09T13:41:37.432Z,51.43
2019-02-09T13:44:06.847Z,51.05
2019-02-09T13:46:36.283Z,51.44
2019-02-09T13:49:05.825Z,51.49
2019-02-09T13:51:38.209Z,52.64
2019-02-09T13:54:07.765Z,52.08
2019-02-09T13:56:37.199Z,51.78
2019-02-09T13:59:07.843Z,51.80
2019-02-09T14:01:40.177Z,51.68
2019-02-09T14:04:09.601Z,51.88
2019-02-09T14:06:39.092Z,52.06
2019-02-09T14:09:10.510Z,52.03
2019-02-09T14:11:40.989Z,52.26
2019-02-09T14:14:10.421Z,51.17
2019-02-09T14:16:39.839Z,52.32
2019-02-09T14:19:09.337Z,51.94
2019-02-09T14:21:38.819Z,51.85
2019-02-09T14:24:08.319Z,51.72
2019-02-09T14:26:39.103Z,51.02
2019-02-09T14:29:08.600Z,51.55
2019-02-09T14:31:38.580Z,51.52
2019-02-09T14:34:10.120Z,51.08
2019-02-09T14:36:39.323Z,51.13
2019-02-09T14:39:11.215Z,51.45
2019-02-09T14:41:40.751Z,51.59
2019-02-09T14:44:10.262Z,52.04
2019-02-09T14:46:40.063Z,51.99
2019-02-09T14:49:09.528Z,50.35
2019-02-09T14:51:39.015Z,50.94
2019-02-09T14:54:11.742Z,51.05
2019-02-09T14:56:42.440Z,51.81
2019-02-09T14:59:11.867Z,51.29
2019-02-09T15:01:41.597Z,51.19
2019-02-09T15:04:14.177Z,52.09
2019-02-09T15:06:43.674Z,52.68
2019-02-09T15:09:13.090Z,54.96
2019-02-09T15:11:42.585Z,57.15
2019-02-09T15:14:12.002Z,63.02
2019-02-09T15:16:41.499Z,69.04
2019-02-09T15:19:10.908Z,70.24
2019-02-09T15:21:40.561Z,71.65
2019-02-09T15:24:09.976Z,72.08
2019-02-09T15:26:40.051Z,72.07
2019-02-09T15:29:09.524Z,71.35
2019-02-09T15:31:38.956Z,71.25
2019-02-09T15:34:10.581Z,71.32
2019-02-09T15:36:40.801Z,69.18
2019-02-09T15:39:10.458Z,67.97
2019-02-09T15:41:39.944Z,67.60
2019-02-09T15:44:09.424Z,67.00
2019-02-09T15:46:40.494Z,65.94
2019-02-09T15:49:16.900Z,63.71
2019-02-09T15:51:46.317Z,64.81
2019-02-09T15:54:24.813Z,64.76
2019-02-09T15:56:54.247Z,64.31
2019-02-09T15:59:25.264Z,63.82
2019-02-09T16:01:57.193Z,63.29
2019-02-09T16:04:29.291Z,62.19
2019-02-09T16:06:58.724Z,62.58
2019-02-09T16:09:33.770Z,62.39
2019-02-09T16:12:05.969Z,61.78
2019-02-09T16:14:35.932Z,61.49
2019-02-09T16:17:05.504Z,61.06
2019-02-09T16:19:34.997Z,60.96
2019-02-09T16:22:04.502Z,60.87
2019-02-09T16:24:36.497Z,60.51
2019-02-09T16:27:06.057Z,61.10
2019-02-09T16:29:35.494Z,61.08
2019-02-09T16:32:06.787Z,60.89
2019-02-09T16:34:36.191Z,60.38
2019-02-09T16:37:05.693Z,60.11
2019-02-09T16:39:38.073Z,59.81
2019-02-09T16:42:07.719Z,59.98
2019-02-09T16:44:38.945Z,60.09
2019-02-09T16:47:10.340Z,59.96
2019-02-09T16:49:41.964Z,60.11
2019-02-09T16:52:11.466Z,60.56
2019-02-09T16:54:42.408Z,60.64
2019-02-09T16:57:11.917Z,60.84
2019-02-09T16:59:41.387Z,60.43
2019-02-09T17:02:10.939Z,61.00
2019-02-09T17:04:40.417Z,61.13
2019-02-09T17:07:09.904Z,61.03
2019-02-09T17:09:39.316Z,61.30
2019-02-09T17:12:08.827Z,61.11
2019-02-09T17:14:38.224Z,60.74
2019-02-09T17:17:07.638Z,60.35
2019-02-09T17:19:37.065Z,60.60
2019-02-09T17:22:06.966Z,60.56
2019-02-09T17:24:36.372Z,60.31
2019-02-09T17:27:08.800Z,60.01
2019-02-09T17:29:43.665Z,59.88
2019-02-09T17:32:14.074Z,59.98
2019-02-09T17:34:46.478Z,59.95
2019-02-09T17:37:19.152Z,60.19
2019-02-09T17:39:54.829Z,60.25
2019-02-09T17:42:24.710Z,60.24
2019-02-09T17:44:56.957Z,60.58
2019-02-09T17:47:27.958Z,60.16
2019-02-09T17:49:57.355Z,59.89
2019-02-09T17:52:26.853Z,59.72
2019-02-09T17:54:56.272Z,59.90
2019-02-09T17:57:25.713Z,59.51
2019-02-09T17:59:55.205Z,59.54
2019-02-09T18:02:24.616Z,60.00
2019-02-09T18:05:01.869Z,60.69
2019-02-09T18:07:35.387Z,60.80
2019-02-09T18:10:10.761Z,60.52
2019-02-09T18:12:45.955Z,60.60
2019-02-09T18:15:19.729Z,60.80
2019-02-09T18:17:49.142Z,60.74
2019-02-09T18:20:20.195Z,60.79
2019-02-09T18:22:49.827Z,60.94
2019-02-09T18:25:25.363Z,61.05
2019-02-09T18:27:56.399Z,60.92
2019-02-09T18:30:30.507Z,61.32
2019-02-09T18:33:00.283Z,61.34
2019-02-09T18:35:32.729Z,61.45
2019-02-09T18:38:08.031Z,61.49
2019-02-09T18:40:37.545Z,61.74
2019-02-09T18:43:08.633Z,61.91
2019-02-09T18:45:38.137Z,62.23
2019-02-09T18:48:12.884Z,62.32
2019-02-09T18:50:45.322Z,62.61
2019-02-09T18:53:18.069Z,62.89
2019-02-09T18:55:52.235Z,62.94
2019-02-09T18:58:21.876Z,63.18
2019-02-09T19:00:51.634Z,63.20
2019-02-09T19:03:21.279Z,63.17
2019-02-09T19:05:52.287Z,63.45
2019-02-09T19:08:23.246Z,63.62
2019-02-09T19:10:52.689Z,63.43
2019-02-09T19:13:29.749Z,63.85
2019-02-09T19:15:59.767Z,64.10
2019-02-09T19:18:33.300Z,64.18
2019-02-09T19:21:02.803Z,63.79
2019-02-09T19:23:32.313Z,63.84
2019-02-09T19:26:09.086Z,63.91
2019-02-09T19:28:37.847Z,63.72
2019-02-09T19:31:09.681Z,63.71
2019-02-09T19:33:43.924Z,63.65
2019-02-09T19:36:15.606Z,63.75
2019-02-09T19:38:45.245Z,63.51
2019-02-09T19:41:16.162Z,63.03
2019-02-09T19:43:46.273Z,62.86
2019-02-09T19:46:15.872Z,63.12
2019-02-09T19:48:48.774Z,62.94
2019-02-09T19:51:18.258Z,63.21
2019-02-09T19:53:47.679Z,63.35
2019-02-09T19:56:17.186Z,63.52
2019-02-09T19:58:50.484Z,63.43
2019-02-09T20:01:23.864Z,63.32
2019-02-09T20:03:53.283Z,63.16
2019-02-09T20:06:25.700Z,63.00
2019-02-09T20:08:55.252Z,63.00
2019-02-09T20:11:24.831Z,62.93
2019-02-09T20:13:56.511Z,63.33
2019-02-09T20:16:27.632Z,63.50
2019-02-09T20:19:00.117Z,63.71
2019-02-09T20:21:35.896Z,63.63
2019-02-09T20:24:10.944Z,63.30
2019-02-09T20:26:41.060Z,63.43
2019-02-09T20:29:10.616Z,63.48
2019-02-09T20:31:46.280Z,63.37
2019-02-09T20:34:16.254Z,62.86
2019-02-09T20:36:47.642Z,63.10
2019-02-09T20:39:21.679Z,63.06
2019-02-09T20:41:51.225Z,62.81
2019-02-09T20:44:22.985Z,62.85
2019-02-09T20:46:57.785Z,62.53
2019-02-09T20:49:23.971Z,62.64
2019-02-09T20:51:55.023Z,62.73
2019-02-09T20:54:24.498Z,62.49
2019-02-09T20:57:01.836Z,62.82
2019-02-09T20:59:32.512Z,62.71
2019-02-09T21:02:03.172Z,62.20
2019-02-09T21:04:34.103Z,62.48
2019-02-09T21:07:05.287Z,62.39
2019-02-09T21:09:35.353Z,62.61
2019-02-09T21:12:04.911Z,62.70
2019-02-09T21:14:38.609Z,62.79
2019-02-09T21:17:12.867Z,62.99
2019-02-09T21:19:42.339Z,63.43
2019-02-09T21:22:11.821Z,63.58
2019-02-09T21:24:41.271Z,63.11
2019-02-09T21:27:10.709Z,63.37
2019-02-09T21:29:40.202Z,63.65
2019-02-09T21:32:12.580Z,63.71
2019-02-09T21:34:42.081Z,64.01
2019-02-09T21:37:11.517Z,63.95
2019-02-09T21:39:42.579Z,64.28
2019-02-09T21:42:15.195Z,64.40
2019-02-09T21:44:44.597Z,64.78
2019-02-09T21:47:17.235Z,65.02
2019-02-09T21:49:48.348Z,65.29
2019-02-09T21:52:17.721Z,65.44
2019-02-09T21:54:48.753Z,65.87
2019-02-09T21:57:18.328Z,65.66
2019-02-09T21:59:47.869Z,65.85
2019-02-09T22:02:17.525Z,65.76
2019-02-09T22:04:47.153Z,65.77
2019-02-09T22:07:19.954Z,65.95
2019-02-09T22:09:50.980Z,65.74
2019-02-09T22:12:20.852Z,65.48
2019-02-09T22:14:50.963Z,65.58
2019-02-09T22:17:20.822Z,65.60
2019-02-09T22:19:50.477Z,65.40
2019-02-09T22:22:20.976Z,65.27
2019-02-09T22:24:50.464Z,65.21
2019-02-09T22:27:21.490Z,65.35
2019-02-09T22:29:54.085Z,65.32
2019-02-09T22:32:23.568Z,65.35
2019-02-09T22:34:52.979Z,65.21
2019-02-09T22:37:24.541Z,65.36
2019-02-09T22:39:55.749Z,65.72
2019-02-09T22:42:28.934Z,65.73
2019-02-09T22:44:58.346Z,65.94
2019-02-09T22:47:28.163Z,66.02
2019-02-09T22:50:00.592Z,66.10
2019-02-09T22:52:30.033Z,66.16
2019-02-09T22:54:59.441Z,66.17
2019-02-09T22:57:31.344Z,66.30
2019-02-09T23:00:10.554Z,66.29
2019-02-09T23:02:44.141Z,66.18
2019-02-09T23:05:22.066Z,66.02
2019-02-09T23:07:51.555Z,66.23
2019-02-09T23:10:21.038Z,66.32
2019-02-09T23:12:50.537Z,66.48
2019-02-09T23:15:22.982Z,66.71
2019-02-09T23:17:51.151Z,66.74
2019-02-09T23:20:20.563Z,66.85
2019-02-09T23:22:50.072Z,66.98
2019-02-09T23:25:21.122Z,67.07
2019-02-09T23:27:52.515Z,66.96
2019-02-09T23:30:21.933Z,66.92
2019-02-09T23:32:51.433Z,66.73
2019-02-09T23:35:20.843Z,66.67
2019-02-09T23:37:50.351Z,66.43
2019-02-09T23:40:19.773Z,66.36
2019-02-09T23:42:49.291Z,66.42
2019-02-09T23:45:19.873Z,66.48
2019-02-09T23:47:49.298Z,66.63
2019-02-09T23:50:18.708Z,66.88
2019-02-09T23:52:48.167Z,67.06
2019-02-09T23:55:20.580Z,67.00
2019-02-09T23:57:50.011Z,67.21
